sensor_id;sensor_type;location;lat;lon;timestamp;pressure;altitude;pressure_sealevel;temperature;humidity
53659;BME280;41524;35.624;139.698;2023-11-19T00:00:11;100900.00;;;25.85;18.09
53659;BME280;41524;35.624;139.698;2023-11-19T00:05:12;100914.00;;;28.06;18.45
53659;BME280;41524;35.624;139.698;2023-11-19T00:10:13;100919.00;;;27.17;18.11
53659;BME280;41524;35.624;139.698;2023-11-19T00:15:11;100931.00;;;18.36;23.51
53659;BME280;41524;35.624;139.698;2023-11-19T00:20:12;100936.00;;;13.76;27.10
53659;BME280;41524;35.624;139.698;2023-11-19T00:25:11;100959.00;;;11.17;34.44
53659;BME280;41524;35.624;139.698;2023-11-19T00:30:11;100961.00;;;11.11;35.58
53659;BME280;41524;35.624;139.698;2023-11-19T00:35:11;100960.00;;;11.41;35.83
53659;BME280;41524;35.624;139.698;2023-11-19T00:40:12;100955.00;;;13.74;34.90
53659;BME280;41524;35.624;139.698;2023-11-19T00:45:11;100955.00;;;13.63;34.66
53659;BME280;41524;35.624;139.698;2023-11-19T00:50:11;100955.00;;;14.06;33.96
53659;BME280;41524;35.624;139.698;2023-11-19T00:55:12;100966.00;;;12.99;35.93
53659;BME280;41524;35.624;139.698;2023-11-19T01:00:12;100967.00;;;13.66;35.14
53659;BME280;41524;35.624;139.698;2023-11-19T01:05:11;100967.00;;;16.13;33.56
53659;BME280;41524;35.624;139.698;2023-11-19T01:10:11;100963.00;;;15.83;32.40
53659;BME280;41524;35.624;139.698;2023-11-19T01:15:11;100957.00;;;17.45;30.83
53659;BME280;41524;35.624;139.698;2023-11-19T01:20:11;100963.00;;;16.96;30.79
53659;BME280;41524;35.624;139.698;2023-11-19T01:25:10;100944.00;;;16.61;29.72
53659;BME280;41524;35.624;139.698;2023-11-19T01:30:11;100930.00;;;16.94;32.63
53659;BME280;41524;35.624;139.698;2023-11-19T01:35:12;100926.00;;;16.25;31.31
53659;BME280;41524;35.624;139.698;2023-11-19T01:40:12;100921.00;;;14.97;31.20
53659;BME280;41524;35.624;139.698;2023-11-19T01:45:21;100915.00;;;18.09;32.45
53659;BME280;41524;35.624;139.698;2023-11-19T01:50:11;100899.00;;;18.42;31.14
53659;BME280;41524;35.624;139.698;2023-11-19T01:55:12;100887.00;;;17.87;29.86
53659;BME280;41524;35.624;139.698;2023-11-19T02:00:12;100884.00;;;17.93;28.49
53659;BME280;41524;35.624;139.698;2023-11-19T02:05:12;100879.00;;;17.75;28.39
53659;BME280;41524;35.624;139.698;2023-11-19T02:10:12;100865.00;;;16.66;29.29
53659;BME280;41524;35.624;139.698;2023-11-19T02:15:12;100855.00;;;16.14;29.23
53659;BME280;41524;35.624;139.698;2023-11-19T02:20:11;100837.00;;;18.27;29.58
53659;BME280;41524;35.624;139.698;2023-11-19T02:25:19;100827.00;;;16.84;28.90
53659;BME280;41524;35.624;139.698;2023-11-19T02:30:12;100813.00;;;16.86;28.43
53659;BME280;41524;35.624;139.698;2023-11-19T02:35:11;100810.00;;;17.00;28.19
53659;BME280;41524;35.624;139.698;2023-11-19T02:40:11;100816.00;;;16.29;29.62
53659;BME280;41524;35.624;139.698;2023-11-19T02:45:11;100813.00;;;17.39;29.02
53659;BME280;41524;35.624;139.698;2023-11-19T02:50:11;100798.00;;;18.52;27.44
53659;BME280;41524;35.624;139.698;2023-11-19T02:55:11;100795.00;;;16.78;27.48
53659;BME280;41524;35.624;139.698;2023-11-19T03:00:12;100780.00;;;18.48;28.73
53659;BME280;41524;35.624;139.698;2023-11-19T03:05:12;100768.00;;;19.39;28.65
53659;BME280;41524;35.624;139.698;2023-11-19T03:10:11;100765.00;;;17.48;26.95
53659;BME280;41524;35.624;139.698;2023-11-19T03:15:11;100751.00;;;18.73;27.09
53659;BME280;41524;35.624;139.698;2023-11-19T03:20:11;100740.00;;;19.87;32.51
53659;BME280;41524;35.624;139.698;2023-11-19T03:25:11;100735.00;;;22.04;26.81
53659;BME280;41524;35.624;139.698;2023-11-19T03:30:12;100737.00;;;18.93;26.08
53659;BME280;41524;35.624;139.698;2023-11-19T03:35:11;100736.00;;;19.90;25.38
53659;BME280;41524;35.624;139.698;2023-11-19T03:40:11;100739.00;;;20.99;24.08
53659;BME280;41524;35.624;139.698;2023-11-19T03:45:11;100727.00;;;21.56;24.53
53659;BME280;41524;35.624;139.698;2023-11-19T03:50:11;100726.00;;;19.76;24.87
53659;BME280;41524;35.624;139.698;2023-11-19T03:55:11;100717.00;;;21.10;23.70
53659;BME280;41524;35.624;139.698;2023-11-19T04:00:12;100724.00;;;18.72;24.69
53659;BME280;41524;35.624;139.698;2023-11-19T04:05:11;100714.00;;;20.95;22.35
53659;BME280;41524;35.624;139.698;2023-11-19T04:10:11;100710.00;;;22.12;22.59
53659;BME280;41524;35.624;139.698;2023-11-19T04:15:13;100710.00;;;21.66;21.92
53659;BME280;41524;35.624;139.698;2023-11-19T04:20:13;100713.00;;;21.88;21.30
53659;BME280;41524;35.624;139.698;2023-11-19T04:25:10;100696.00;;;22.72;20.85
53659;BME280;41524;35.624;139.698;2023-11-19T04:30:11;100684.00;;;22.06;21.88
53659;BME280;41524;35.624;139.698;2023-11-19T04:35:10;100668.00;;;21.65;22.48
53659;BME280;41524;35.624;139.698;2023-11-19T04:40:11;100664.00;;;19.44;23.82
53659;BME280;41524;35.624;139.698;2023-11-19T04:45:11;100661.00;;;19.00;24.51
53659;BME280;41524;35.624;139.698;2023-11-19T04:50:11;100661.00;;;17.95;26.27
53659;BME280;41524;35.624;139.698;2023-11-19T04:55:20;100664.00;;;17.12;28.47
53659;BME280;41524;35.624;139.698;2023-11-19T05:00:12;100666.00;;;17.69;28.67
53659;BME280;41524;35.624;139.698;2023-11-19T05:05:11;100656.00;;;16.70;28.49
53659;BME280;41524;35.624;139.698;2023-11-19T05:10:11;100653.00;;;15.72;28.81
53659;BME280;41524;35.624;139.698;2023-11-19T05:15:12;100647.00;;;16.55;29.24
53659;BME280;41524;35.624;139.698;2023-11-19T05:20:11;100651.00;;;15.75;30.83
53659;BME280;41524;35.624;139.698;2023-11-19T05:25:10;100651.00;;;17.33;30.85
53659;BME280;41524;35.624;139.698;2023-11-19T05:30:12;100660.00;;;16.89;31.66
53659;BME280;41524;35.624;139.698;2023-11-19T05:35:11;100657.00;;;15.04;34.00
53659;BME280;41524;35.624;139.698;2023-11-19T05:40:11;100661.00;;;16.48;31.52
53659;BME280;41524;35.624;139.698;2023-11-19T05:45:12;100662.00;;;15.75;33.70
53659;BME280;41524;35.624;139.698;2023-11-19T05:50:11;100669.00;;;15.26;33.50
53659;BME280;41524;35.624;139.698;2023-11-19T05:55:10;100667.00;;;16.47;32.68
53659;BME280;41524;35.624;139.698;2023-11-19T06:00:12;100664.00;;;15.85;33.39
53659;BME280;41524;35.624;139.698;2023-11-19T06:05:11;100679.00;;;15.19;33.21
53659;BME280;41524;35.624;139.698;2023-11-19T06:10:11;100678.00;;;14.40;34.04
53659;BME280;41524;35.624;139.698;2023-11-19T06:15:11;100684.00;;;15.28;33.24
53659;BME280;41524;35.624;139.698;2023-11-19T06:20:12;100692.00;;;16.73;31.32
53659;BME280;41524;35.624;139.698;2023-11-19T06:25:11;100698.00;;;17.15;30.45
53659;BME280;41524;35.624;139.698;2023-11-19T06:30:13;100700.00;;;17.10;30.14
53659;BME280;41524;35.624;139.698;2023-11-19T06:35:11;100699.00;;;15.31;32.22
53659;BME280;41524;35.624;139.698;2023-11-19T06:40:11;100696.00;;;16.25;30.58
53659;BME280;41524;35.624;139.698;2023-11-19T06:45:11;100696.00;;;17.24;29.36
53659;BME280;41524;35.624;139.698;2023-11-19T06:50:11;100700.00;;;15.70;31.64
53659;BME280;41524;35.624;139.698;2023-11-19T06:55:11;100702.00;;;17.38;29.22
53659;BME280;41524;35.624;139.698;2023-11-19T07:00:13;100708.00;;;15.88;30.99
53659;BME280;41524;35.624;139.698;2023-11-19T07:05:12;100710.00;;;16.22;31.24
53659;BME280;41524;35.624;139.698;2023-11-19T07:10:11;100705.00;;;16.40;32.36
53659;BME280;41524;35.624;139.698;2023-11-19T07:15:11;100709.00;;;15.51;34.02
53659;BME280;41524;35.624;139.698;2023-11-19T07:20:12;100719.00;;;15.46;33.25
53659;BME280;41524;35.624;139.698;2023-11-19T07:25:13;100725.00;;;16.50;32.23
53659;BME280;41524;35.624;139.698;2023-11-19T07:30:11;100728.00;;;15.86;33.39
53659;BME280;41524;35.624;139.698;2023-11-19T07:35:10;100736.00;;;15.75;33.22
53659;BME280;41524;35.624;139.698;2023-11-19T07:40:12;100738.00;;;15.54;33.50
53659;BME280;41524;35.624;139.698;2023-11-19T07:45:12;100734.00;;;15.78;33.55
53659;BME280;41524;35.624;139.698;2023-11-19T07:50:11;100736.00;;;14.99;34.70
53659;BME280;41524;35.624;139.698;2023-11-19T07:55:11;100745.00;;;15.19;31.02
53659;BME280;41524;35.624;139.698;2023-11-19T08:00:11;100748.00;;;15.82;30.06
53659;BME280;41524;35.624;139.698;2023-11-19T08:05:12;100755.00;;;15.85;31.05
53659;BME280;41524;35.624;139.698;2023-11-19T08:10:11;100764.00;;;16.24;31.85
53659;BME280;41524;35.624;139.698;2023-11-19T08:15:11;100768.00;;;16.14;33.01
53659;BME280;41524;35.624;139.698;2023-11-19T08:20:12;100765.00;;;15.00;36.32
53659;BME280;41524;35.624;139.698;2023-11-19T08:25:12;100773.00;;;14.90;37.44
53659;BME280;41524;35.624;139.698;2023-11-19T08:30:12;100776.00;;;14.77;39.23
53659;BME280;41524;35.624;139.698;2023-11-19T08:35:11;100789.00;;;14.01;40.95
53659;BME280;41524;35.624;139.698;2023-11-19T08:40:11;100788.00;;;13.94;41.93
53659;BME280;41524;35.624;139.698;2023-11-19T08:45:11;100788.00;;;14.54;41.92
53659;BME280;41524;35.624;139.698;2023-11-19T08:50:11;100796.00;;;14.56;42.98
53659;BME280;41524;35.624;139.698;2023-11-19T08:55:10;100798.00;;;14.68;44.21
53659;BME280;41524;35.624;139.698;2023-11-19T09:00:17;100812.00;;;14.17;46.06
53659;BME280;41524;35.624;139.698;2023-11-19T09:05:11;100815.00;;;13.77;47.97
53659;BME280;41524;35.624;139.698;2023-11-19T09:10:11;100817.00;;;13.63;47.95
53659;BME280;41524;35.624;139.698;2023-11-19T09:15:11;100816.00;;;14.12;46.21
53659;BME280;41524;35.624;139.698;2023-11-19T09:20:11;100830.00;;;13.72;48.05
53659;BME280;41524;35.624;139.698;2023-11-19T09:25:11;100830.00;;;14.19;47.92
53659;BME280;41524;35.624;139.698;2023-11-19T09:30:12;100831.00;;;13.64;49.58
53659;BME280;41524;35.624;139.698;2023-11-19T09:35:11;100832.00;;;13.66;49.72
53659;BME280;41524;35.624;139.698;2023-11-19T09:40:11;100826.00;;;14.32;49.47
53659;BME280;41524;35.624;139.698;2023-11-19T09:45:14;100820.00;;;14.02;50.30
53659;BME280;41524;35.624;139.698;2023-11-19T09:50:12;100816.00;;;13.02;52.73
53659;BME280;41524;35.624;139.698;2023-11-19T09:55:11;100814.00;;;13.71;52.45
53659;BME280;41524;35.624;139.698;2023-11-19T10:00:11;100809.00;;;13.68;52.84
53659;BME280;41524;35.624;139.698;2023-11-19T10:05:11;100804.00;;;13.30;54.15
53659;BME280;41524;35.624;139.698;2023-11-19T10:10:11;100797.00;;;13.04;54.65
53659;BME280;41524;35.624;139.698;2023-11-19T10:15:17;100795.00;;;13.51;54.93
53659;BME280;41524;35.624;139.698;2023-11-19T10:20:11;100797.00;;;13.27;55.35
53659;BME280;41524;35.624;139.698;2023-11-19T10:25:23;100795.00;;;12.46;58.03
53659;BME280;41524;35.624;139.698;2023-11-19T10:30:12;100786.00;;;13.18;56.31
53659;BME280;41524;35.624;139.698;2023-11-19T10:35:11;100775.00;;;13.22;56.71
53659;BME280;41524;35.624;139.698;2023-11-19T10:40:12;100766.00;;;13.15;58.03
53659;BME280;41524;35.624;139.698;2023-11-19T10:45:23;100766.00;;;12.13;59.98
53659;BME280;41524;35.624;139.698;2023-11-19T10:50:12;100767.00;;;13.15;57.76
53659;BME280;41524;35.624;139.698;2023-11-19T10:55:12;100759.00;;;13.47;57.34
53659;BME280;41524;35.624;139.698;2023-11-19T11:00:14;100754.00;;;13.21;57.84
53659;BME280;41524;35.624;139.698;2023-11-19T11:05:13;100759.00;;;12.59;58.48
53659;BME280;41524;35.624;139.698;2023-11-19T11:10:11;100760.00;;;12.53;59.10
53659;BME280;41524;35.624;139.698;2023-11-19T11:15:12;100769.00;;;12.80;59.15
53659;BME280;41524;35.624;139.698;2023-11-19T11:20:12;100769.00;;;12.69;59.21
53659;BME280;41524;35.624;139.698;2023-11-19T11:25:21;100770.00;;;12.75;58.84
53659;BME280;41524;35.624;139.698;2023-11-19T11:30:19;100763.00;;;12.91;58.87
53659;BME280;41524;35.624;139.698;2023-11-19T11:35:24;100763.00;;;12.72;59.34
53659;BME280;41524;35.624;139.698;2023-11-19T11:40:15;100746.00;;;12.43;59.21
53659;BME280;41524;35.624;139.698;2023-11-19T11:45:13;100748.00;;;12.69;59.10
53659;BME280;41524;35.624;139.698;2023-11-19T11:50:12;100741.00;;;12.58;59.41
53659;BME280;41524;35.624;139.698;2023-11-19T11:55:16;100735.00;;;12.66;59.61
53659;BME280;41524;35.624;139.698;2023-11-19T12:00:15;100734.00;;;12.38;59.99
53659;BME280;41524;35.624;139.698;2023-11-19T12:05:11;100729.00;;;11.59;60.53
53659;BME280;41524;35.624;139.698;2023-11-19T12:10:13;100730.00;;;12.65;58.62
53659;BME280;41524;35.624;139.698;2023-11-19T12:15:12;100733.00;;;12.37;59.89
53659;BME280;41524;35.624;139.698;2023-11-19T12:20:12;100730.00;;;12.05;60.69
53659;BME280;41524;35.624;139.698;2023-11-19T12:25:13;100735.00;;;12.21;59.50
53659;BME280;41524;35.624;139.698;2023-11-19T12:30:12;100737.00;;;11.69;60.98
53659;BME280;41524;35.624;139.698;2023-11-19T12:35:12;100742.00;;;13.15;58.06
53659;BME280;41524;35.624;139.698;2023-11-19T12:40:21;100744.00;;;11.59;60.89
53659;BME280;41524;35.624;139.698;2023-11-19T12:45:11;100745.00;;;12.45;60.11
53659;BME280;41524;35.624;139.698;2023-11-19T12:50:11;100751.00;;;13.22;57.43
53659;BME280;41524;35.624;139.698;2023-11-19T12:55:27;100761.00;;;11.88;60.70
53659;BME280;41524;35.624;139.698;2023-11-19T13:00:21;100756.00;;;12.15;59.08
53659;BME280;41524;35.624;139.698;2023-11-19T13:05:23;100758.00;;;12.17;59.58
53659;BME280;41524;35.624;139.698;2023-11-19T13:10:11;100754.00;;;12.00;59.32
53659;BME280;41524;35.624;139.698;2023-11-19T13:15:24;100752.00;;;11.49;59.82
53659;BME280;41524;35.624;139.698;2023-11-19T13:20:18;100756.00;;;11.39;59.94
53659;BME280;41524;35.624;139.698;2023-11-19T13:25:11;100766.00;;;13.06;56.35
53659;BME280;41524;35.624;139.698;2023-11-19T13:30:13;100772.00;;;12.21;57.17
53659;BME280;41524;35.624;139.698;2023-11-19T13:35:12;100782.00;;;11.65;58.62
53659;BME280;41524;35.624;139.698;2023-11-19T13:40:12;100783.00;;;11.04;57.04
53659;BME280;41524;35.624;139.698;2023-11-19T13:45:12;100778.00;;;10.85;57.99
53659;BME280;41524;35.624;139.698;2023-11-19T13:50:12;100774.00;;;10.54;57.64
53659;BME280;41524;35.624;139.698;2023-11-19T13:55:11;100770.00;;;11.55;55.92
53659;BME280;41524;35.624;139.698;2023-11-19T14:00:13;100771.00;;;10.90;56.39
53659;BME280;41524;35.624;139.698;2023-11-19T14:05:11;100775.00;;;10.84;56.46
53659;BME280;41524;35.624;139.698;2023-11-19T14:10:12;100775.00;;;11.29;55.45
53659;BME280;41524;35.624;139.698;2023-11-19T14:15:11;100773.00;;;10.23;56.17
53659;BME280;41524;35.624;139.698;2023-11-19T14:20:11;100759.00;;;10.77;54.86
53659;BME280;41524;35.624;139.698;2023-11-19T14:25:13;100755.00;;;10.01;55.92
53659;BME280;41524;35.624;139.698;2023-11-19T14:30:12;100745.00;;;10.74;53.79
53659;BME280;41524;35.624;139.698;2023-11-19T14:35:12;100741.00;;;10.73;53.18
53659;BME280;41524;35.624;139.698;2023-11-19T14:40:12;100743.00;;;11.28;51.90
53659;BME280;41524;35.624;139.698;2023-11-19T14:45:11;100749.00;;;10.88;51.82
53659;BME280;41524;35.624;139.698;2023-11-19T14:50:11;100733.00;;;11.11;52.00
53659;BME280;41524;35.624;139.698;2023-11-19T14:55:11;100719.00;;;10.87;52.38
53659;BME280;41524;35.624;139.698;2023-11-19T15:00:11;100728.00;;;9.99;53.68
53659;BME280;41524;35.624;139.698;2023-11-19T15:05:10;100725.00;;;11.71;50.73
53659;BME280;41524;35.624;139.698;2023-11-19T15:10:11;100718.00;;;11.82;50.40
53659;BME280;41524;35.624;139.698;2023-11-19T15:15:11;100729.00;;;10.58;52.30
53659;BME280;41524;35.624;139.698;2023-11-19T15:20:12;100730.00;;;11.16;51.06
53659;BME280;41524;35.624;139.698;2023-11-19T15:25:11;100718.00;;;12.29;49.43
53659;BME280;41524;35.624;139.698;2023-11-19T15:30:12;100717.00;;;10.77;52.56
53659;BME280;41524;35.624;139.698;2023-11-19T15:35:10;100717.00;;;10.43;52.57
53659;BME280;41524;35.624;139.698;2023-11-19T15:40:12;100704.00;;;10.87;52.58
53659;BME280;41524;35.624;139.698;2023-11-19T15:45:11;100692.00;;;10.11;53.31
53659;BME280;41524;35.624;139.698;2023-11-19T15:50:11;100694.00;;;10.79;52.97
53659;BME280;41524;35.624;139.698;2023-11-19T15:55:11;100698.00;;;9.89;54.30
53659;BME280;41524;35.624;139.698;2023-11-19T16:00:11;100699.00;;;10.31;53.63
53659;BME280;41524;35.624;139.698;2023-11-19T16:05:11;100691.00;;;10.82;53.41
53659;BME280;41524;35.624;139.698;2023-11-19T16:10:11;100674.00;;;10.81;53.67
53659;BME280;41524;35.624;139.698;2023-11-19T16:15:11;100668.00;;;9.52;55.86
53659;BME280;41524;35.624;139.698;2023-11-19T16:20:11;100662.00;;;10.41;54.83
53659;BME280;41524;35.624;139.698;2023-11-19T16:25:10;100663.00;;;10.26;54.90
53659;BME280;41524;35.624;139.698;2023-11-19T16:30:12;100676.00;;;9.76;55.81
53659;BME280;41524;35.624;139.698;2023-11-19T16:35:12;100674.00;;;9.91;55.21
53659;BME280;41524;35.624;139.698;2023-11-19T16:40:12;100663.00;;;9.84;55.42
53659;BME280;41524;35.624;139.698;2023-11-19T16:45:11;100657.00;;;11.63;51.70
53659;BME280;41524;35.624;139.698;2023-11-19T16:50:12;100663.00;;;9.45;54.99
53659;BME280;41524;35.624;139.698;2023-11-19T16:55:11;100672.00;;;10.25;54.83
53659;BME280;41524;35.624;139.698;2023-11-19T17:00:11;100671.00;;;10.18;54.18
53659;BME280;41524;35.624;139.698;2023-11-19T17:05:12;100661.00;;;9.80;55.12
53659;BME280;41524;35.624;139.698;2023-11-19T17:10:12;100667.00;;;9.28;55.73
53659;BME280;41524;35.624;139.698;2023-11-19T17:15:11;100675.00;;;9.05;55.96
53659;BME280;41524;35.624;139.698;2023-11-19T17:20:12;100670.00;;;9.66;54.20
53659;BME280;41524;35.624;139.698;2023-11-19T17:25:11;100657.00;;;10.25;54.29
53659;BME280;41524;35.624;139.698;2023-11-19T17:30:11;100653.00;;;8.87;56.63
53659;BME280;41524;35.624;139.698;2023-11-19T17:35:11;100650.00;;;9.65;55.50
53659;BME280;41524;35.624;139.698;2023-11-19T17:40:12;100642.00;;;8.93;56.80
53659;BME280;41524;35.624;139.698;2023-11-19T17:45:11;100644.00;;;9.45;55.21
53659;BME280;41524;35.624;139.698;2023-11-19T17:50:12;100640.00;;;9.63;55.04
53659;BME280;41524;35.624;139.698;2023-11-19T17:55:10;100642.00;;;9.81;55.55
53659;BME280;41524;35.624;139.698;2023-11-19T18:00:12;100652.00;;;8.44;58.48
53659;BME280;41524;35.624;139.698;2023-11-19T18:05:11;100651.00;;;9.33;56.67
53659;BME280;41524;35.624;139.698;2023-11-19T18:10:11;100651.00;;;9.46;56.40
53659;BME280;41524;35.624;139.698;2023-11-19T18:15:11;100653.00;;;9.40;56.93
53659;BME280;41524;35.624;139.698;2023-11-19T18:20:11;100654.00;;;9.04;57.69
53659;BME280;41524;35.624;139.698;2023-11-19T18:25:11;100643.00;;;9.13;57.55
53659;BME280;41524;35.624;139.698;2023-11-19T18:30:12;100657.00;;;9.30;57.59
53659;BME280;41524;35.624;139.698;2023-11-19T18:35:10;100650.00;;;9.24;58.08
53659;BME280;41524;35.624;139.698;2023-11-19T18:40:11;100648.00;;;8.50;58.49
53659;BME280;41524;35.624;139.698;2023-11-19T18:45:11;100637.00;;;9.94;55.34
53659;BME280;41524;35.624;139.698;2023-11-19T18:50:11;100622.00;;;8.92;57.39
53659;BME280;41524;35.624;139.698;2023-11-19T18:55:11;100618.00;;;9.23;57.06
53659;BME280;41524;35.624;139.698;2023-11-19T19:00:12;100610.00;;;7.75;60.21
53659;BME280;41524;35.624;139.698;2023-11-19T19:05:10;100593.00;;;8.62;58.53
53659;BME280;41524;35.624;139.698;2023-11-19T19:10:11;100582.00;;;9.14;56.50
53659;BME280;41524;35.624;139.698;2023-11-19T19:15:12;100588.00;;;9.97;55.39
53659;BME280;41524;35.624;139.698;2023-11-19T19:20:11;100585.00;;;9.16;57.30
53659;BME280;41524;35.624;139.698;2023-11-19T19:25:10;100582.00;;;9.17;56.99
53659;BME280;41524;35.624;139.698;2023-11-19T19:30:11;100598.00;;;8.18;57.69
53659;BME280;41524;35.624;139.698;2023-11-19T19:35:11;100611.00;;;9.32;55.33
53659;BME280;41524;35.624;139.698;2023-11-19T19:40:12;100604.00;;;9.27;55.39
53659;BME280;41524;35.624;139.698;2023-11-19T19:45:11;100601.00;;;8.52;56.92
53659;BME280;41524;35.624;139.698;2023-11-19T19:50:11;100573.00;;;8.48;56.88
53659;BME280;41524;35.624;139.698;2023-11-19T19:55:11;100542.00;;;8.43;56.46
53659;BME280;41524;35.624;139.698;2023-11-19T20:00:11;100546.00;;;8.88;56.24
53659;BME280;41524;35.624;139.698;2023-11-19T20:05:12;100539.00;;;8.68;56.85
53659;BME280;41524;35.624;139.698;2023-11-19T20:10:11;100541.00;;;9.70;54.40
53659;BME280;41524;35.624;139.698;2023-11-19T20:15:11;100534.00;;;9.75;54.74
53659;BME280;41524;35.624;139.698;2023-11-19T20:20:11;100533.00;;;8.99;56.05
53659;BME280;41524;35.624;139.698;2023-11-19T20:25:11;100531.00;;;8.12;57.81
53659;BME280;41524;35.624;139.698;2023-11-19T20:30:11;100536.00;;;8.94;56.71
53659;BME280;41524;35.624;139.698;2023-11-19T20:35:11;100542.00;;;8.16;57.89
53659;BME280;41524;35.624;139.698;2023-11-19T20:40:11;100548.00;;;9.92;54.83
53659;BME280;41524;35.624;139.698;2023-11-19T20:45:10;100568.00;;;8.63;57.43
53659;BME280;41524;35.624;139.698;2023-11-19T20:50:10;100562.00;;;8.40;58.39
53659;BME280;41524;35.624;139.698;2023-11-19T20:55:10;100571.00;;;8.03;58.58
53659;BME280;41524;35.624;139.698;2023-11-19T21:00:12;100562.00;;;7.42;59.83
53659;BME280;41524;35.624;139.698;2023-11-19T21:05:10;100560.00;;;8.93;56.29
53659;BME280;41524;35.624;139.698;2023-11-19T21:10:11;100555.00;;;8.45;57.76
53659;BME280;41524;35.624;139.698;2023-11-19T21:15:11;100548.00;;;8.77;56.76
53659;BME280;41524;35.624;139.698;2023-11-19T21:20:11;100543.00;;;8.40;57.63
53659;BME280;41524;35.624;139.698;2023-11-19T21:25:11;100540.00;;;8.87;56.97
53659;BME280;41524;35.624;139.698;2023-11-19T21:30:10;100538.00;;;7.99;58.64
53659;BME280;41524;35.624;139.698;2023-11-19T21:35:11;100550.00;;;7.86;59.60
53659;BME280;41524;35.624;139.698;2023-11-19T21:40:11;100560.00;;;8.31;58.44
53659;BME280;41524;35.624;139.698;2023-11-19T21:45:20;100563.00;;;8.16;58.45
53659;BME280;41524;35.624;139.698;2023-11-19T21:50:11;100567.00;;;8.40;58.33
53659;BME280;41524;35.624;139.698;2023-11-19T21:55:11;100584.00;;;7.70;61.79
53659;BME280;41524;35.624;139.698;2023-11-19T22:00:19;100584.00;;;9.02;58.62
53659;BME280;41524;35.624;139.698;2023-11-19T22:05:12;100578.00;;;9.56;60.25
53659;BME280;41524;35.624;139.698;2023-11-19T22:10:10;100574.00;;;8.92;60.55
53659;BME280;41524;35.624;139.698;2023-11-19T22:15:11;100578.00;;;9.35;57.61
53659;BME280;41524;35.624;139.698;2023-11-19T22:20:11;100596.00;;;9.32;60.29
53659;BME280;41524;35.624;139.698;2023-11-19T22:25:11;100606.00;;;9.82;58.73
53659;BME280;41524;35.624;139.698;2023-11-19T22:30:12;100621.00;;;10.29;56.03
53659;BME280;41524;35.624;139.698;2023-11-19T22:35:11;100629.00;;;10.56;54.23
53659;BME280;41524;35.624;139.698;2023-11-19T22:40:12;100625.00;;;14.69;47.34
53659;BME280;41524;35.624;139.698;2023-11-19T22:45:11;100622.00;;;14.46;45.45
53659;BME280;41524;35.624;139.698;2023-11-19T22:50:11;100612.00;;;15.62;42.56
53659;BME280;41524;35.624;139.698;2023-11-19T22:55:10;100603.00;;;16.53;39.67
53659;BME280;41524;35.624;139.698;2023-11-19T23:00:12;100606.00;;;18.59;37.25
53659;BME280;41524;35.624;139.698;2023-11-19T23:05:10;100616.00;;;19.49;34.69
53659;BME280;41524;35.624;139.698;2023-11-19T23:10:11;100613.00;;;16.87;38.00
53659;BME280;41524;35.624;139.698;2023-11-19T23:15:11;100622.00;;;19.45;33.56
53659;BME280;41524;35.624;139.698;2023-11-19T23:20:12;100638.00;;;23.95;28.53
53659;BME280;41524;35.624;139.698;2023-11-19T23:25:11;100643.00;;;25.15;27.34
53659;BME280;41524;35.624;139.698;2023-11-19T23:30:12;100646.00;;;22.82;27.69
53659;BME280;41524;35.624;139.698;2023-11-19T23:35:12;100658.00;;;27.00;24.95
53659;BME280;41524;35.624;139.698;2023-11-19T23:40:11;100691.00;;;22.44;27.14
53659;BME280;41524;35.624;139.698;2023-11-19T23:45:11;100700.00;;;23.10;26.65
53659;BME280;41524;35.624;139.698;2023-11-19T23:50:11;100727.00;;;23.20;27.18
53659;BME280;41524;35.624;139.698;2023-11-19T23:55:11;100717.00;;;24.84;26.23
